sensor_id;sensor_type;location;lat;lon;timestamp;pressure;altitude;pressure_sealevel;temperature;humidity
8575;BME280;4325;42.520;27.448;2024-03-08T00:01:05;101387.16;;;9.01;100.00
8575;BME280;4325;42.520;27.448;2024-03-08T00:03:32;101391.03;;;9.05;100.00
8575;BME280;4325;42.520;27.448;2024-03-08T00:05:59;101386.66;;;9.04;100.00
8575;BME280;4325;42.520;27.448;2024-03-08T00:08:28;101388.31;;;9.05;100.00
8575;BME280;4325;42.520;27.448;2024-03-08T00:10:56;101378.72;;;9.03;100.00
8575;BME280;4325;42.520;27.448;2024-03-08T00:13:23;101367.81;;;9.03;100.00
8575;BME280;4325;42.520;27.448;2024-03-08T00:15:50;101372.53;;;9.07;100.00
8575;BME280;4325;42.520;27.448;2024-03-08T00:18:17;101369.69;;;9.02;100.00
8575;BME280;4325;42.520;27.448;2024-03-08T00:20:44;101370.84;;;9.06;100.00
8575;BME280;4325;42.520;27.448;2024-03-08T00:23:12;101367.66;;;9.09;100.00
8575;BME280;4325;42.520;27.448;2024-03-08T00:25:42;101360.03;;;9.11;100.00
8575;BME280;4325;42.520;27.448;2024-03-08T00:28:09;101366.91;;;9.14;100.00
8575;BME280;4325;42.520;27.448;2024-03-08T00:30:39;101373.88;;;9.21;100.00
8575;BME280;4325;42.520;27.448;2024-03-08T00:33:06;101359.09;;;9.22;100.00
8575;BME280;4325;42.520;27.448;2024-03-08T00:35:33;101359.38;;;9.21;100.00
8575;BME280;4325;42.520;27.448;2024-03-08T00:38:00;101350.34;;;9.20;100.00
8575;BME280;4325;42.520;27.448;2024-03-08T00:40:27;101356.91;;;9.19;100.00
8575;BME280;4325;42.520;27.448;2024-03-08T00:42:56;101356.06;;;9.19;100.00
8575;BME280;4325;42.520;27.448;2024-03-08T00:45:23;101353.91;;;9.21;100.00
8575;BME280;4325;42.520;27.448;2024-03-08T00:47:50;101351.34;;;9.14;100.00
8575;BME280;4325;42.520;27.448;2024-03-08T00:50:17;101349.75;;;9.18;100.00
8575;BME280;4325;42.520;27.448;2024-03-08T00:52:44;101354.75;;;9.21;100.00
8575;BME280;4325;42.520;27.448;2024-03-08T00:55:12;101352.84;;;9.22;100.00
8575;BME280;4325;42.520;27.448;2024-03-08T00:57:39;101353.72;;;9.27;100.00
8575;BME280;4325;42.520;27.448;2024-03-08T01:00:08;101365.19;;;9.24;100.00
8575;BME280;4325;42.520;27.448;2024-03-08T01:02:37;101355.56;;;9.22;100.00
8575;BME280;4325;42.520;27.448;2024-03-08T01:05:05;101350.59;;;9.19;100.00
8575;BME280;4325;42.520;27.448;2024-03-08T01:07:33;101354.75;;;9.21;100.00
8575;BME280;4325;42.520;27.448;2024-03-08T01:10:00;101354.75;;;9.21;100.00
8575;BME280;4325;42.520;27.448;2024-03-08T01:12:27;101344.28;;;9.18;100.00
8575;BME280;4325;42.520;27.448;2024-03-08T01:14:55;101345.44;;;9.22;100.00
8575;BME280;4325;42.520;27.448;2024-03-08T01:17:24;101336.19;;;9.23;100.00
8575;BME280;4325;42.520;27.448;2024-03-08T01:19:52;101342.81;;;9.27;100.00
8575;BME280;4325;42.520;27.448;2024-03-08T01:22:20;101341.75;;;9.28;100.00
8575;BME280;4325;42.520;27.448;2024-03-08T01:24:46;101341.47;;;9.30;100.00
8575;BME280;4325;42.520;27.448;2024-03-08T01:27:13;101348.25;;;9.27;100.00
8575;BME280;4325;42.520;27.448;2024-03-08T01:29:40;101335.34;;;9.23;100.00
8575;BME280;4325;42.520;27.448;2024-03-08T01:32:07;101344.88;;;9.20;100.00
8575;BME280;4325;42.520;27.448;2024-03-08T01:34:36;101339.66;;;9.19;100.00
8575;BME280;4325;42.520;27.448;2024-03-08T01:37:03;101345.88;;;9.14;100.00
8575;BME280;4325;42.520;27.448;2024-03-08T01:39:30;101343.63;;;9.11;100.00
8575;BME280;4325;42.520;27.448;2024-03-08T01:41:57;101343.53;;;9.06;100.00
8575;BME280;4325;42.520;27.448;2024-03-08T01:44:24;101350.31;;;9.04;100.00
8575;BME280;4325;42.520;27.448;2024-03-08T01:46:53;101339.13;;;9.05;100.00
8575;BME280;4325;42.520;27.448;2024-03-08T01:49:21;101344.59;;;9.05;100.00
8575;BME280;4325;42.520;27.448;2024-03-08T01:51:51;101336.94;;;9.02;100.00
8575;BME280;4325;42.520;27.448;2024-03-08T01:54:19;101337.16;;;9.01;100.00
8575;BME280;4325;42.520;27.448;2024-03-08T01:56:47;101343.94;;;8.98;100.00
8575;BME280;4325;42.520;27.448;2024-03-08T01:59:15;101340.16;;;8.99;100.00
8575;BME280;4325;42.520;27.448;2024-03-08T02:01:42;101341.81;;;9.00;100.00
8575;BME280;4325;42.520;27.448;2024-03-08T02:04:10;101351.06;;;8.99;100.00
8575;BME280;4325;42.520;27.448;2024-03-08T02:06:37;101348.59;;;8.98;100.00
8575;BME280;4325;42.520;27.448;2024-03-08T02:09:06;101344.53;;;9.00;100.00
8575;BME280;4325;42.520;27.448;2024-03-08T02:11:34;101348.91;;;9.01;100.00
8575;BME280;4325;42.520;27.448;2024-03-08T02:14:01;101354.88;;;8.98;100.00
8575;BME280;4325;42.520;27.448;2024-03-08T02:16:28;101348.91;;;9.01;100.00
8575;BME280;4325;42.520;27.448;2024-03-08T02:18:55;101342.38;;;9.02;100.00
8575;BME280;4325;42.520;27.448;2024-03-08T02:21:24;101352.81;;;9.05;100.00
8575;BME280;4325;42.520;27.448;2024-03-08T02:23:52;101343.44;;;9.01;100.00
8575;BME280;4325;42.520;27.448;2024-03-08T02:26:19;101348.44;;;9.04;100.00
8575;BME280;4325;42.520;27.448;2024-03-08T02:28:46;101344.94;;;9.09;100.00
8575;BME280;4325;42.520;27.448;2024-03-08T02:31:14;101348.25;;;9.11;100.00
8575;BME280;4325;42.520;27.448;2024-03-08T02:33:42;101344.13;;;9.08;100.00
8575;BME280;4325;42.520;27.448;2024-03-08T02:36:09;101340.81;;;9.06;100.00
8575;BME280;4325;42.520;27.448;2024-03-08T02:38:37;101343.63;;;9.11;100.00
8575;BME280;4325;42.520;27.448;2024-03-08T02:41:06;101341.38;;;9.08;100.00
8575;BME280;4325;42.520;27.448;2024-03-08T02:43:34;101333.69;;;9.05;100.00
8575;BME280;4325;42.520;27.448;2024-03-08T02:46:01;101331.56;;;9.07;100.00
8575;BME280;4325;42.520;27.448;2024-03-08T02:48:28;101332.72;;;9.11;100.00
8575;BME280;4325;42.520;27.448;2024-03-08T02:50:56;101341.47;;;9.13;100.00
8575;BME280;4325;42.520;27.448;2024-03-08T02:53:23;101342.31;;;9.14;100.00
8575;BME280;4325;42.520;27.448;2024-03-08T02:55:52;101342.88;;;9.16;100.00
8575;BME280;4325;42.520;27.448;2024-03-08T02:58:20;101338.25;;;9.16;100.00
8575;BME280;4325;42.520;27.448;2024-03-08T03:00:47;101336.69;;;9.20;100.00
8575;BME280;4325;42.520;27.448;2024-03-08T03:03:15;101339.19;;;9.22;100.00
8575;BME280;4325;42.520;27.448;2024-03-08T03:05:42;101338.84;;;9.18;100.00
8575;BME280;4325;42.520;27.448;2024-03-08T03:08:09;101338.34;;;9.21;100.00
8575;BME280;4325;42.520;27.448;2024-03-08T03:10:37;101335.13;;;9.24;100.00
8575;BME280;4325;42.520;27.448;2024-03-08T03:13:05;101338.34;;;9.21;100.00
8575;BME280;4325;42.520;27.448;2024-03-08T03:15:34;101336.19;;;9.23;100.00
8575;BME280;4325;42.520;27.448;2024-03-08T03:18:02;101337.25;;;9.22;100.00
8575;BME280;4325;42.520;27.448;2024-03-08T03:20:29;101343.31;;;9.24;100.00
8575;BME280;4325;42.520;27.448;2024-03-08T03:22:58;101347.19;;;9.28;100.00
8575;BME280;4325;42.520;27.448;2024-03-08T03:25:27;101337.34;;;9.27;100.00
8575;BME280;4325;42.520;27.448;2024-03-08T03:27:59;101342.50;;;9.24;100.00
8575;BME280;4325;42.520;27.448;2024-03-08T03:30:28;101343.31;;;9.24;100.00
8575;BME280;4325;42.520;27.448;2024-03-08T03:32:59;101346.28;;;9.23;100.00
8575;BME280;4325;42.520;27.448;2024-03-08T03:35:27;101332.38;;;9.24;100.00
8575;BME280;4325;42.520;27.448;2024-03-08T03:37:54;101339.00;;;9.28;100.00
8575;BME280;4325;42.520;27.448;2024-03-08T03:40:32;101336.69;;;9.20;100.00
8575;BME280;4325;42.520;27.448;2024-03-08T03:42:59;101334.94;;;9.14;100.00
8575;BME280;4325;42.520;27.448;2024-03-08T03:45:29;101344.78;;;9.15;100.00
8575;BME280;4325;42.520;27.448;2024-03-08T03:47:59;101333.69;;;9.05;100.00
8575;BME280;4325;42.520;27.448;2024-03-08T03:50:26;101340.81;;;9.06;100.00
8575;BME280;4325;42.520;27.448;2024-03-08T03:52:53;101342.38;;;9.02;100.00
8575;BME280;4325;42.520;27.448;2024-03-08T03:55:20;101337.50;;;9.04;100.00
8575;BME280;4325;42.520;27.448;2024-03-08T03:57:47;101342.97;;;9.04;100.00
8575;BME280;4325;42.520;27.448;2024-03-08T04:00:15;101332.53;;;9.01;100.00
8575;BME280;4325;42.520;27.448;2024-03-08T04:02:43;101345.97;;;9.03;100.00
8575;BME280;4325;42.520;27.448;2024-03-08T04:05:12;101339.09;;;9.00;100.00
8575;BME280;4325;42.520;27.448;2024-03-08T04:07:40;101341.72;;;8.95;100.00
8575;BME280;4325;42.520;27.448;2024-03-08T04:10:12;101336.97;;;8.91;100.00
8575;BME280;4325;42.520;27.448;2024-03-08T04:12:40;101342.69;;;8.89;100.00
8575;BME280;4325;42.520;27.448;2024-03-08T04:15:08;101338.91;;;8.90;100.00
8575;BME280;4325;42.520;27.448;2024-03-08T04:17:36;101352.94;;;8.82;100.00
8575;BME280;4325;42.520;27.448;2024-03-08T04:20:06;101349.06;;;8.78;100.00
8575;BME280;4325;42.520;27.448;2024-03-08T04:22:35;101344.94;;;8.64;100.00
8575;BME280;4325;42.520;27.448;2024-03-08T04:25:03;101349.59;;;8.63;100.00
8575;BME280;4325;42.520;27.448;2024-03-08T04:27:31;101344.25;;;8.57;100.00
8575;BME280;4325;42.520;27.448;2024-03-08T04:29:59;101341.22;;;8.53;100.00
8575;BME280;4325;42.520;27.448;2024-03-08T04:32:26;101345.34;;;8.56;100.00
8575;BME280;4325;42.520;27.448;2024-03-08T04:34:55;101338.47;;;8.53;100.00
8575;BME280;4325;42.520;27.448;2024-03-08T04:37:23;101342.38;;;8.57;100.00
8575;BME280;4325;42.520;27.448;2024-03-08T04:39:50;101337.16;;;8.56;100.00
8575;BME280;4325;42.520;27.448;2024-03-08T04:42:17;101344.66;;;8.49;100.00
8575;BME280;4325;42.520;27.448;2024-03-08T04:44:44;101355.91;;;8.52;100.00
8575;BME280;4325;42.520;27.448;2024-03-08T04:47:12;101355.06;;;8.52;100.00
8575;BME280;4325;42.520;27.448;2024-03-08T04:49:39;101356.75;;;8.53;100.00
8575;BME280;4325;42.520;27.448;2024-03-08T04:52:06;101352.13;;;8.53;100.00
8575;BME280;4325;42.520;27.448;2024-03-08T04:54:35;101357.31;;;8.55;100.00
8575;BME280;4325;42.520;27.448;2024-03-08T04:57:02;101354.13;;;8.58;100.00
8575;BME280;4325;42.520;27.448;2024-03-08T04:59:30;101363.47;;;8.62;100.00
8575;BME280;4325;42.520;27.448;2024-03-08T05:01:57;101367.88;;;8.63;100.00
8575;BME280;4325;42.520;27.448;2024-03-08T05:04:24;101364.03;;;8.64;100.00
8575;BME280;4325;42.520;27.448;2024-03-08T05:06:51;101362.78;;;8.55;100.00
8575;BME280;4325;42.520;27.448;2024-03-08T05:09:19;101364.47;;;8.56;100.00
8575;BME280;4325;42.520;27.448;2024-03-08T05:11:47;101369.34;;;8.54;100.00
8575;BME280;4325;42.520;27.448;2024-03-08T05:14:14;101373.97;;;8.53;100.00
8575;BME280;4325;42.520;27.448;2024-03-08T05:16:42;101375.97;;;8.58;100.00
8575;BME280;4325;42.520;27.448;2024-03-08T05:19:14;101376.53;;;8.60;100.00
8575;BME280;4325;42.520;27.448;2024-03-08T05:21:42;101377.28;;;8.55;100.00
8575;BME280;4325;42.520;27.448;2024-03-08T05:24:09;101383.78;;;8.54;100.00
8575;BME280;4325;42.520;27.448;2024-03-08T05:26:36;101390.34;;;8.53;100.00
8575;BME280;4325;42.520;27.448;2024-03-08T05:29:05;101386.78;;;8.53;100.00
8575;BME280;4325;42.520;27.448;2024-03-08T05:31:42;101397.78;;;8.58;100.00
8575;BME280;4325;42.520;27.448;2024-03-08T05:34:09;101394.81;;;8.59;100.00
8575;BME280;4325;42.520;27.448;2024-03-08T05:36:40;101400.63;;;8.63;100.00
8575;BME280;4325;42.520;27.448;2024-03-08T05:39:07;101394.00;;;8.59;100.00
8575;BME280;4325;42.520;27.448;2024-03-08T05:41:34;101398.13;;;8.61;100.00
8575;BME280;4325;42.520;27.448;2024-03-08T05:44:01;101407.25;;;8.67;100.00
8575;BME280;4325;42.520;27.448;2024-03-08T05:46:29;101394.69;;;8.66;100.00
8575;BME280;4325;42.520;27.448;2024-03-08T05:48:56;101416.53;;;8.66;100.00
8575;BME280;4325;42.520;27.448;2024-03-08T05:51:24;101408.91;;;8.68;100.00
8575;BME280;4325;42.520;27.448;2024-03-08T05:53:52;101413.91;;;8.71;100.00
8575;BME280;4325;42.520;27.448;2024-03-08T05:56:21;101417.69;;;8.70;100.00
8575;BME280;4325;42.520;27.448;2024-03-08T05:58:48;101415.53;;;8.72;100.00
8575;BME280;4325;42.520;27.448;2024-03-08T06:01:16;101423.84;;;8.77;100.00
8575;BME280;4325;42.520;27.448;2024-03-08T06:03:44;101420.84;;;8.79;100.00
8575;BME280;4325;42.520;27.448;2024-03-08T06:06:13;101416.81;;;8.81;100.00
8575;BME280;4325;42.520;27.448;2024-03-08T06:08:41;101425.59;;;8.83;100.00
8575;BME280;4325;42.520;27.448;2024-03-08T06:11:09;101423.19;;;8.87;100.00
8575;BME280;4325;42.520;27.448;2024-03-08T06:13:36;101423.88;;;8.94;100.00
8575;BME280;4325;42.520;27.448;2024-03-08T06:16:04;101435.47;;;9.01;100.00
8575;BME280;4325;42.520;27.448;2024-03-08T06:18:33;101426.47;;;9.00;100.00
8575;BME280;4325;42.520;27.448;2024-03-08T06:21:03;101431.78;;;9.07;100.00
8575;BME280;4325;42.520;27.448;2024-03-08T06:23:31;101429.38;;;9.10;100.00
8575;BME280;4325;42.520;27.448;2024-03-08T06:25:58;101429.09;;;9.23;100.00
8575;BME280;4325;42.520;27.448;2024-03-08T06:28:25;101433.91;;;9.33;100.00
8575;BME280;4325;42.520;27.448;2024-03-08T06:30:52;101429.28;;;9.34;100.00
8575;BME280;4325;42.520;27.448;2024-03-08T06:33:19;101434.25;;;9.37;100.00
8575;BME280;4325;42.520;27.448;2024-03-08T06:35:46;101430.88;;;9.46;100.00
8575;BME280;4325;42.520;27.448;2024-03-08T06:38:15;101430.50;;;9.59;100.00
8575;BME280;4325;42.520;27.448;2024-03-08T06:40:42;101433.09;;;9.66;100.00
8575;BME280;4325;42.520;27.448;2024-03-08T06:43:09;101434.25;;;9.70;100.00
8575;BME280;4325;42.520;27.448;2024-03-08T06:45:41;101430.47;;;9.71;100.00
8575;BME280;4325;42.520;27.448;2024-03-08T06:48:14;101445.84;;;9.77;100.00
8575;BME280;4325;42.520;27.448;2024-03-08T06:50:42;101436.66;;;9.83;100.00
8575;BME280;4325;42.520;27.448;2024-03-08T06:53:10;101438.88;;;9.86;100.00
8575;BME280;4325;42.520;27.448;2024-03-08T06:55:39;101441.69;;;9.91;100.00
8575;BME280;4325;42.520;27.448;2024-03-08T06:58:06;101440.63;;;9.92;100.00
8575;BME280;4325;42.520;27.448;2024-03-08T07:00:33;101438.72;;;9.92;100.00
8575;BME280;4325;42.520;27.448;2024-03-08T07:03:01;101441.69;;;9.91;100.00
8575;BME280;4325;42.520;27.448;2024-03-08T07:05:29;101441.19;;;9.94;100.00
8575;BME280;4325;42.520;27.448;2024-03-08T07:07:56;101444.09;;;10.04;100.00
8575;BME280;4325;42.520;27.448;2024-03-08T07:10:23;101449.75;;;10.14;100.00
8575;BME280;4325;42.520;27.448;2024-03-08T07:12:52;101446.53;;;10.17;100.00
8575;BME280;4325;42.520;27.448;2024-03-08T07:15:20;101450.97;;;10.23;100.00
8575;BME280;4325;42.520;27.448;2024-03-08T07:17:48;101451.47;;;10.20;100.00
8575;BME280;4325;42.520;27.448;2024-03-08T07:20:18;101451.63;;;10.30;100.00
8575;BME280;4325;42.520;27.448;2024-03-08T07:22:45;101443.47;;;10.35;100.00
8575;BME280;4325;42.520;27.448;2024-03-08T07:25:14;101448.19;;;10.40;100.00
8575;BME280;4325;42.520;27.448;2024-03-08T07:27:48;101449.88;;;10.41;100.00
8575;BME280;4325;42.520;27.448;2024-03-08T07:30:16;101454.56;;;10.45;100.00
8575;BME280;4325;42.520;27.448;2024-03-08T07:33:16;101447.19;;;10.46;100.00
8575;BME280;4325;42.520;27.448;2024-03-08T07:35:43;101463.78;;;10.39;100.00
8575;BME280;4325;42.520;27.448;2024-03-08T07:38:12;101456.66;;;10.38;100.00
8575;BME280;4325;42.520;27.448;2024-03-08T07:40:41;101456.97;;;10.42;100.00
8575;BME280;4325;42.520;27.448;2024-03-08T07:43:10;101454.00;;;10.43;100.00
8575;BME280;4325;42.520;27.448;2024-03-08T07:45:38;101464.88;;;10.38;100.00
8575;BME280;4325;42.520;27.448;2024-03-08T07:48:06;101454.44;;;10.35;100.00
8575;BME280;4325;42.520;27.448;2024-03-08T07:50:36;101453.84;;;10.33;100.00
8575;BME280;4325;42.520;27.448;2024-03-08T07:53:03;101458.06;;;10.41;100.00
8575;BME280;4325;42.520;27.448;2024-03-08T07:55:32;101453.44;;;10.41;100.00
8575;BME280;4325;42.520;27.448;2024-03-08T07:57:59;101463.63;;;10.46;100.00
8575;BME280;4325;42.520;27.448;2024-03-08T08:00:26;101466.16;;;10.52;100.00
8575;BME280;4325;42.520;27.448;2024-03-08T08:02:55;101462.94;;;10.55;100.00
8575;BME280;4325;42.520;27.448;2024-03-08T08:05:22;101467.00;;;10.53;100.00
8575;BME280;4325;42.520;27.448;2024-03-08T08:07:49;101463.34;;;10.47;100.00
8575;BME280;4325;42.520;27.448;2024-03-08T08:10:18;101472.63;;;10.46;100.00
8575;BME280;4325;42.520;27.448;2024-03-08T08:12:47;101469.84;;;10.41;100.00
8575;BME280;4325;42.520;27.448;2024-03-08T08:15:14;101464.88;;;10.38;100.00
8575;BME280;4325;42.520;27.448;2024-03-08T08:17:42;101468.19;;;10.40;100.00
8575;BME280;4325;42.520;27.448;2024-03-08T08:20:11;101475.91;;;10.43;100.00
8575;BME280;4325;42.520;27.448;2024-03-08T08:22:38;101480.28;;;10.44;100.00
8575;BME280;4325;42.520;27.448;2024-03-08T08:25:06;101481.44;;;10.48;100.00
8575;BME280;4325;42.520;27.448;2024-03-08T08:27:33;101477.69;;;10.54;100.00
8575;BME280;4325;42.520;27.448;2024-03-08T08:30:02;101473.38;;;10.58;100.00
8575;BME280;4325;42.520;27.448;2024-03-08T08:32:33;101481.19;;;10.72;100.00
8575;BME280;4325;42.520;27.448;2024-03-08T08:35:01;101466.50;;;10.78;100.00
8575;BME280;4325;42.520;27.448;2024-03-08T08:37:29;101466.81;;;10.81;100.00
8575;BME280;4325;42.520;27.448;2024-03-08T08:39:56;101471.00;;;10.89;100.00
8575;BME280;4325;42.520;27.448;2024-03-08T08:42:24;101475.78;;;10.98;100.00
8575;BME280;4325;42.520;27.448;2024-03-08T08:44:51;101473.66;;;11.05;100.00
8575;BME280;4325;42.520;27.448;2024-03-08T08:47:18;101470.91;;;11.05;100.00
8575;BME280;4325;42.520;27.448;2024-03-08T08:49:45;101481.81;;;11.00;100.00
8575;BME280;4325;42.520;27.448;2024-03-08T08:52:13;101478.06;;;11.06;100.00
8575;BME280;4325;42.520;27.448;2024-03-08T08:54:42;101483.78;;;11.05;100.00
8575;BME280;4325;42.520;27.448;2024-03-08T08:57:10;101476.09;;;11.02;100.00
8575;BME280;4325;42.520;27.448;2024-03-08T08:59:37;101483.22;;;11.03;100.00
8575;BME280;4325;42.520;27.448;2024-03-08T09:02:06;101487.06;;;11.02;100.00
8575;BME280;4325;42.520;27.448;2024-03-08T09:04:34;101479.91;;;11.01;100.00
8575;BME280;4325;42.520;27.448;2024-03-08T09:07:02;101478.78;;;10.97;100.00
8575;BME280;4325;42.520;27.448;2024-03-08T09:09:32;101483.09;;;10.93;100.00
8575;BME280;4325;42.520;27.448;2024-03-08T09:12:00;101478.44;;;10.93;100.00
8575;BME280;4325;42.520;27.448;2024-03-08T09:14:27;101484.75;;;10.94;100.00
8575;BME280;4325;42.520;27.448;2024-03-08T09:16:55;101487.56;;;10.99;100.00
8575;BME280;4325;42.520;27.448;2024-03-08T09:19:22;101478.84;;;11.02;100.00
8575;BME280;4325;42.520;27.448;2024-03-08T09:21:51;101490.88;;;11.01;100.00
8575;BME280;4325;42.520;27.448;2024-03-08T09:24:18;101485.41;;;11.01;100.00
8575;BME280;4325;42.520;27.448;2024-03-08T09:26:46;101485.41;;;11.01;100.00
8575;BME280;4325;42.520;27.448;2024-03-08T09:29:14;101489.94;;;11.12;100.00
8575;BME280;4325;42.520;27.448;2024-03-08T09:31:41;101487.28;;;11.22;100.00
8575;BME280;4325;42.520;27.448;2024-03-08T09:34:08;101482.22;;;11.36;100.00
8575;BME280;4325;42.520;27.448;2024-03-08T09:36:35;101495.25;;;11.50;100.00
8575;BME280;4325;42.520;27.448;2024-03-08T09:39:02;101486.56;;;11.58;100.00
8575;BME280;4325;42.520;27.448;2024-03-08T09:41:33;101490.38;;;11.57;100.00
8575;BME280;4325;42.520;27.448;2024-03-08T09:44:00;101491.56;;;11.66;100.00
8575;BME280;4325;42.520;27.448;2024-03-08T09:46:30;101491.69;;;11.76;100.00
8575;BME280;4325;42.520;27.448;2024-03-08T09:48:58;101489.31;;;11.85;100.00
8575;BME280;4325;42.520;27.448;2024-03-08T09:51:28;101495.13;;;11.93;100.00
8575;BME280;4325;42.520;27.448;2024-03-08T09:53:56;101497.91;;;11.99;100.00
8575;BME280;4325;42.520;27.448;2024-03-08T09:56:25;101501.78;;;12.03;100.00
8575;BME280;4325;42.520;27.448;2024-03-08T09:58:53;101499.69;;;12.15;100.00
8575;BME280;4325;42.520;27.448;2024-03-08T10:01:41;101495.41;;;12.29;100.00
8575;BME280;4325;42.520;27.448;2024-03-08T10:04:09;101510.50;;;12.26;100.00
8575;BME280;4325;42.520;27.448;2024-03-08T10:06:37;101503.66;;;12.29;100.00
8575;BME280;4325;42.520;27.448;2024-03-08T10:09:04;101506.72;;;12.37;100.00
8575;BME280;4325;42.520;27.448;2024-03-08T10:11:33;101509.81;;;12.46;100.00
8575;BME280;4325;42.520;27.448;2024-03-08T10:14:00;101506.72;;;12.37;100.00
8575;BME280;4325;42.520;27.448;2024-03-08T10:16:28;101509.69;;;12.31;100.00
8575;BME280;4325;42.520;27.448;2024-03-08T10:18:57;101511.28;;;12.27;100.00
8575;BME280;4325;42.520;27.448;2024-03-08T10:21:26;101501.38;;;12.21;100.00
8575;BME280;4325;42.520;27.448;2024-03-08T10:23:53;101503.06;;;12.27;100.00
8575;BME280;4325;42.520;27.448;2024-03-08T10:26:24;101502.28;;;12.31;100.00
8575;BME280;4325;42.520;27.448;2024-03-08T10:28:52;101508.06;;;12.35;100.00
8575;BME280;4325;42.520;27.448;2024-03-08T10:31:19;101506.44;;;12.39;100.00
8575;BME280;4325;42.520;27.448;2024-03-08T10:33:47;101507.06;;;12.51;100.00
8575;BME280;4325;42.520;27.448;2024-03-08T10:36:16;101504.66;;;12.59;100.00
8575;BME280;4325;42.520;27.448;2024-03-08T10:38:44;101511.00;;;12.65;100.00
8575;BME280;4325;42.520;27.448;2024-03-08T10:41:13;101506.38;;;12.76;100.00
8575;BME280;4325;42.520;27.448;2024-03-08T10:43:53;101505.63;;;12.90;100.00
8575;BME280;4325;42.520;27.448;2024-03-08T10:46:39;101507.09;;;13.08;100.00
8575;BME280;4325;42.520;27.448;2024-03-08T10:49:16;101511.28;;;13.20;100.00
8575;BME280;4325;42.520;27.448;2024-03-08T10:51:46;101506.09;;;13.44;100.00
8575;BME280;4325;42.520;27.448;2024-03-08T10:54:19;101497.59;;;13.66;100.00
8575;BME280;4325;42.520;27.448;2024-03-08T10:56:48;101492.66;;;13.73;99.07
8575;BME280;4325;42.520;27.448;2024-03-08T10:59:16;101496.53;;;13.82;97.94
8575;BME280;4325;42.520;27.448;2024-03-08T11:01:44;101495.13;;;13.95;94.92
8575;BME280;4325;42.520;27.448;2024-03-08T11:04:11;101491.56;;;14.09;94.63
8575;BME280;4325;42.520;27.448;2024-03-08T11:06:42;101497.59;;;14.21;93.30
8575;BME280;4325;42.520;27.448;2024-03-08T11:09:27;101498.16;;;14.43;94.41
8575;BME280;4325;42.520;27.448;2024-03-08T11:12:19;101500.88;;;14.59;92.55
8575;BME280;4325;42.520;27.448;2024-03-08T11:14:47;101499.81;;;14.44;90.54
8575;BME280;4325;42.520;27.448;2024-03-08T11:17:16;101494.88;;;14.36;89.03
8575;BME280;4325;42.520;27.448;2024-03-08T11:19:48;101497.34;;;14.18;88.70
8575;BME280;4325;42.520;27.448;2024-03-08T11:22:21;101498.19;;;14.03;90.01
8575;BME280;4325;42.520;27.448;2024-03-08T11:24:51;101492.66;;;13.93;89.80
8575;BME280;4325;42.520;27.448;2024-03-08T11:27:18;101500.94;;;13.88;90.63
8575;BME280;4325;42.520;27.448;2024-03-08T11:29:59;101496.00;;;13.75;91.10
8575;BME280;4325;42.520;27.448;2024-03-08T11:32:35;101497.38;;;13.72;89.02
8575;BME280;4325;42.520;27.448;2024-03-08T11:35:06;101501.75;;;13.78;91.16
8575;BME280;4325;42.520;27.448;2024-03-08T11:37:34;101498.72;;;13.90;91.98
8575;BME280;4325;42.520;27.448;2024-03-08T11:40:11;101503.69;;;13.93;89.09
8575;BME280;4325;42.520;27.448;2024-03-08T11:42:45;101502.31;;;13.80;85.61
8575;BME280;4325;42.520;27.448;2024-03-08T11:45:13;101500.91;;;13.73;89.05
8575;BME280;4325;42.520;27.448;2024-03-08T11:47:42;101500.38;;;13.81;89.59
8575;BME280;4325;42.520;27.448;2024-03-08T11:50:12;101500.91;;;13.58;86.52
8575;BME280;4325;42.520;27.448;2024-03-08T11:52:39;101503.88;;;13.36;89.76
8575;BME280;4325;42.520;27.448;2024-03-08T11:55:08;101502.50;;;13.29;93.64
8575;BME280;4325;42.520;27.448;2024-03-08T11:57:36;101495.88;;;13.24;94.24
8575;BME280;4325;42.520;27.448;2024-03-08T12:00:04;101506.88;;;13.24;93.88
8575;BME280;4325;42.520;27.448;2024-03-08T12:02:33;101495.03;;;13.19;94.38
8575;BME280;4325;42.520;27.448;2024-03-08T12:05:04;101496.41;;;13.21;96.13
8575;BME280;4325;42.520;27.448;2024-03-08T12:07:35;101501.09;;;13.21;98.14
8575;BME280;4325;42.520;27.448;2024-03-08T12:10:20;101495.28;;;13.07;96.51
8575;BME280;4325;42.520;27.448;2024-03-08T12:12:49;101491.09;;;13.05;94.03
8575;BME280;4325;42.520;27.448;2024-03-08T12:15:17;101500.97;;;12.96;93.78
8575;BME280;4325;42.520;27.448;2024-03-08T12:17:45;101496.00;;;12.88;94.38
8575;BME280;4325;42.520;27.448;2024-03-08T12:20:15;101489.63;;;12.77;95.18
8575;BME280;4325;42.520;27.448;2024-03-08T12:22:43;101494.56;;;12.70;95.49
8575;BME280;4325;42.520;27.448;2024-03-08T12:25:11;101503.28;;;12.62;95.76
8575;BME280;4325;42.520;27.448;2024-03-08T12:27:41;101501.56;;;12.51;97.31
8575;BME280;4325;42.520;27.448;2024-03-08T12:30:19;101500.97;;;12.44;99.54
8575;BME280;4325;42.520;27.448;2024-03-08T12:32:50;101503.22;;;12.52;100.00
8575;BME280;4325;42.520;27.448;2024-03-08T12:35:19;101500.00;;;12.60;100.00
8575;BME280;4325;42.520;27.448;2024-03-08T12:37:48;101494.03;;;12.78;98.40
8575;BME280;4325;42.520;27.448;2024-03-08T12:40:17;101499.03;;;12.91;97.40
8575;BME280;4325;42.520;27.448;2024-03-08T12:42:46;101498.81;;;13.03;95.71
8575;BME280;4325;42.520;27.448;2024-03-08T12:45:14;101503.03;;;13.26;98.18
8575;BME280;4325;42.520;27.448;2024-03-08T12:47:41;101497.59;;;13.46;94.57
8575;BME280;4325;42.520;27.448;2024-03-08T12:50:10;101491.00;;;13.52;92.33
8575;BME280;4325;42.520;27.448;2024-03-08T12:52:37;101501.44;;;13.45;91.20
8575;BME280;4325;42.520;27.448;2024-03-08T12:55:05;101485.16;;;13.23;90.42
8575;BME280;4325;42.520;27.448;2024-03-08T12:57:34;101493.63;;;13.06;88.82
8575;BME280;4325;42.520;27.448;2024-03-08T13:00:05;101495.97;;;12.83;91.21
8575;BME280;4325;42.520;27.448;2024-03-08T13:02:39;101500.56;;;12.67;91.24
8575;BME280;4325;42.520;27.448;2024-03-08T13:05:06;101498.25;;;12.49;91.09